sensor_id;sensor_type;location;lat;lon;timestamp;P1;durP1;ratioP1;P2;durP2;ratioP2
67195;SDS011;54122;53.538;49.366;2023-05-08T00:00:56;8.07;;;2.35;;
67195;SDS011;54122;53.538;49.366;2023-05-08T00:03:23;9.57;;;2.47;;
67195;SDS011;54122;53.538;49.366;2023-05-08T00:05:49;5.50;;;2.25;;
67195;SDS011;54122;53.538;49.366;2023-05-08T00:08:15;5.63;;;2.17;;
67195;SDS011;54122;53.538;49.366;2023-05-08T00:10:42;7.82;;;2.25;;
67195;SDS011;54122;53.538;49.366;2023-05-08T00:13:08;5.60;;;2.38;;
67195;SDS011;54122;53.538;49.366;2023-05-08T00:15:34;6.25;;;2.25;;
67195;SDS011;54122;53.538;49.366;2023-05-08T00:18:01;3.85;;;1.90;;
67195;SDS011;54122;53.538;49.366;2023-05-08T00:20:27;5.15;;;2.53;;
67195;SDS011;54122;53.538;49.366;2023-05-08T00:22:53;6.05;;;2.03;;
67195;SDS011;54122;53.538;49.366;2023-05-08T00:25:21;6.72;;;1.90;;
67195;SDS011;54122;53.538;49.366;2023-05-08T00:27:47;7.20;;;1.92;;
67195;SDS011;54122;53.538;49.366;2023-05-08T00:30:13;4.35;;;2.35;;
67195;SDS011;54122;53.538;49.366;2023-05-08T00:32:39;6.82;;;2.55;;
67195;SDS011;54122;53.538;49.366;2023-05-08T00:35:06;4.30;;;2.05;;
67195;SDS011;54122;53.538;49.366;2023-05-08T00:37:32;4.88;;;2.17;;
67195;SDS011;54122;53.538;49.366;2023-05-08T00:39:58;10.85;;;2.15;;
67195;SDS011;54122;53.538;49.366;2023-05-08T00:42:25;4.13;;;1.92;;
67195;SDS011;54122;53.538;49.366;2023-05-08T00:44:51;3.92;;;1.80;;
67195;SDS011;54122;53.538;49.366;2023-05-08T00:47:17;4.82;;;1.90;;
67195;SDS011;54122;53.538;49.366;2023-05-08T00:49:45;5.45;;;2.10;;
67195;SDS011;54122;53.538;49.366;2023-05-08T00:52:12;3.63;;;2.00;;
67195;SDS011;54122;53.538;49.366;2023-05-08T00:54:38;4.95;;;1.92;;
67195;SDS011;54122;53.538;49.366;2023-05-08T00:57:08;5.00;;;2.25;;
67195;SDS011;54122;53.538;49.366;2023-05-08T00:59:35;3.63;;;1.92;;
67195;SDS011;54122;53.538;49.366;2023-05-08T01:02:02;8.20;;;1.83;;
67195;SDS011;54122;53.538;49.366;2023-05-08T01:04:29;6.40;;;2.20;;
67195;SDS011;54122;53.538;49.366;2023-05-08T01:06:57;3.60;;;1.90;;
67195;SDS011;54122;53.538;49.366;2023-05-08T01:09:23;5.40;;;2.58;;
67195;SDS011;54122;53.538;49.366;2023-05-08T01:17:15;4.72;;;2.47;;
67195;SDS011;54122;53.538;49.366;2023-05-08T01:22:35;4.88;;;2.08;;
67195;SDS011;54122;53.538;49.366;2023-05-08T01:32:54;12.73;;;2.40;;
67195;SDS011;54122;53.538;49.366;2023-05-08T01:35:30;8.35;;;2.22;;
67195;SDS011;54122;53.538;49.366;2023-05-08T01:38:12;6.13;;;2.38;;
67195;SDS011;54122;53.538;49.366;2023-05-08T01:46:31;7.63;;;2.15;;
67195;SDS011;54122;53.538;49.366;2023-05-08T01:51:39;4.70;;;2.35;;
67195;SDS011;54122;53.538;49.366;2023-05-08T01:54:10;3.13;;;1.80;;
67195;SDS011;54122;53.538;49.366;2023-05-08T01:59:08;4.60;;;2.17;;
67195;SDS011;54122;53.538;49.366;2023-05-08T02:01:38;3.20;;;1.70;;
67195;SDS011;54122;53.538;49.366;2023-05-08T02:04:05;4.90;;;2.40;;
67195;SDS011;54122;53.538;49.366;2023-05-08T02:06:33;8.05;;;1.88;;
67195;SDS011;54122;53.538;49.366;2023-05-08T02:09:00;5.63;;;1.75;;
67195;SDS011;54122;53.538;49.366;2023-05-08T02:11:27;3.13;;;1.80;;
67195;SDS011;54122;53.538;49.366;2023-05-08T02:13:56;4.22;;;1.90;;
67195;SDS011;54122;53.538;49.366;2023-05-08T02:16:26;13.55;;;2.00;;
67195;SDS011;54122;53.538;49.366;2023-05-08T02:18:54;5.72;;;1.90;;
67195;SDS011;54122;53.538;49.366;2023-05-08T02:21:23;4.53;;;1.75;;
67195;SDS011;54122;53.538;49.366;2023-05-08T02:23:51;11.73;;;2.17;;
67195;SDS011;54122;53.538;49.366;2023-05-08T02:26:18;5.57;;;1.52;;
67195;SDS011;54122;53.538;49.366;2023-05-08T02:28:47;4.15;;;1.88;;
67195;SDS011;54122;53.538;49.366;2023-05-08T02:31:15;3.42;;;2.00;;
67195;SDS011;54122;53.538;49.366;2023-05-08T02:33:42;10.13;;;2.10;;
67195;SDS011;54122;53.538;49.366;2023-05-08T02:36:12;14.85;;;1.83;;
67195;SDS011;54122;53.538;49.366;2023-05-08T02:38:41;6.45;;;1.90;;
67195;SDS011;54122;53.538;49.366;2023-05-08T02:41:11;4.28;;;1.73;;
67195;SDS011;54122;53.538;49.366;2023-05-08T02:43:39;6.43;;;1.45;;
67195;SDS011;54122;53.538;49.366;2023-05-08T02:46:13;6.35;;;1.70;;
67195;SDS011;54122;53.538;49.366;2023-05-08T02:48:45;3.67;;;1.45;;
67195;SDS011;54122;53.538;49.366;2023-05-08T02:54:02;6.57;;;1.67;;
67195;SDS011;54122;53.538;49.366;2023-05-08T02:56:37;9.50;;;1.52;;
67195;SDS011;54122;53.538;49.366;2023-05-08T02:59:36;9.38;;;1.70;;
67195;SDS011;54122;53.538;49.366;2023-05-08T03:04:57;2.60;;;1.40;;
67195;SDS011;54122;53.538;49.366;2023-05-08T03:07:26;5.20;;;1.37;;
67195;SDS011;54122;53.538;49.366;2023-05-08T03:09:59;3.92;;;1.50;;
67195;SDS011;54122;53.538;49.366;2023-05-08T03:12:29;5.53;;;1.58;;
67195;SDS011;54122;53.538;49.366;2023-05-08T03:17:34;1.52;;;1.05;;
67195;SDS011;54122;53.538;49.366;2023-05-08T03:20:06;2.60;;;0.95;;
67195;SDS011;54122;53.538;49.366;2023-05-08T03:22:34;5.55;;;1.30;;
67195;SDS011;54122;53.538;49.366;2023-05-08T03:25:03;2.05;;;1.40;;
67195;SDS011;54122;53.538;49.366;2023-05-08T03:27:31;3.72;;;1.58;;
67195;SDS011;54122;53.538;49.366;2023-05-08T03:29:58;5.10;;;1.70;;
67195;SDS011;54122;53.538;49.366;2023-05-08T03:32:27;2.55;;;1.33;;
67195;SDS011;54122;53.538;49.366;2023-05-08T03:34:57;8.73;;;1.50;;
67195;SDS011;54122;53.538;49.366;2023-05-08T03:37:25;6.63;;;1.58;;
67195;SDS011;54122;53.538;49.366;2023-05-08T03:39:53;2.30;;;1.20;;
67195;SDS011;54122;53.538;49.366;2023-05-08T03:42:22;5.10;;;1.85;;
67195;SDS011;54122;53.538;49.366;2023-05-08T03:44:50;2.30;;;1.20;;
67195;SDS011;54122;53.538;49.366;2023-05-08T03:47:17;4.60;;;1.10;;
67195;SDS011;54122;53.538;49.366;2023-05-08T03:49:45;2.10;;;1.05;;
67195;SDS011;54122;53.538;49.366;2023-05-08T03:52:13;5.65;;;1.10;;
67195;SDS011;54122;53.538;49.366;2023-05-08T03:54:39;3.97;;;1.25;;
67195;SDS011;54122;53.538;49.366;2023-05-08T03:57:06;2.08;;;0.90;;
67195;SDS011;54122;53.538;49.366;2023-05-08T03:59:59;6.70;;;0.90;;
67195;SDS011;54122;53.538;49.366;2023-05-08T04:05:00;2.75;;;0.75;;
67195;SDS011;54122;53.538;49.366;2023-05-08T04:07:42;3.88;;;0.80;;
67195;SDS011;54122;53.538;49.366;2023-05-08T04:10:17;1.75;;;0.70;;
67195;SDS011;54122;53.538;49.366;2023-05-08T04:16:00;1.75;;;0.85;;
67195;SDS011;54122;53.538;49.366;2023-05-08T04:20:55;1.08;;;0.57;;
67195;SDS011;54122;53.538;49.366;2023-05-08T04:23:23;1.10;;;0.73;;
67195;SDS011;54122;53.538;49.366;2023-05-08T04:25:51;3.97;;;0.55;;
67195;SDS011;54122;53.538;49.366;2023-05-08T04:28:20;1.65;;;0.60;;
67195;SDS011;54122;53.538;49.366;2023-05-08T04:30:46;4.78;;;0.55;;
67195;SDS011;54122;53.538;49.366;2023-05-08T04:33:14;1.05;;;0.70;;
67195;SDS011;54122;53.538;49.366;2023-05-08T04:35:42;2.97;;;0.70;;
67195;SDS011;54122;53.538;49.366;2023-05-08T04:38:10;5.45;;;1.02;;
67195;SDS011;54122;53.538;49.366;2023-05-08T04:40:36;1.65;;;0.77;;
67195;SDS011;54122;53.538;49.366;2023-05-08T04:43:02;5.25;;;0.90;;
67195;SDS011;54122;53.538;49.366;2023-05-08T04:45:28;3.22;;;0.85;;
67195;SDS011;54122;53.538;49.366;2023-05-08T04:47:55;1.77;;;0.73;;
67195;SDS011;54122;53.538;49.366;2023-05-08T04:50:21;1.45;;;0.80;;
67195;SDS011;54122;53.538;49.366;2023-05-08T04:52:47;4.60;;;0.80;;
67195;SDS011;54122;53.538;49.366;2023-05-08T04:55:13;2.53;;;0.90;;
67195;SDS011;54122;53.538;49.366;2023-05-08T04:57:40;1.88;;;0.63;;
67195;SDS011;54122;53.538;49.366;2023-05-08T05:00:06;1.08;;;0.60;;
67195;SDS011;54122;53.538;49.366;2023-05-08T05:02:33;6.78;;;0.70;;
67195;SDS011;54122;53.538;49.366;2023-05-08T05:05:00;2.95;;;0.85;;
67195;SDS011;54122;53.538;49.366;2023-05-08T05:07:26;4.07;;;0.57;;
67195;SDS011;54122;53.538;49.366;2023-05-08T05:09:52;6.45;;;0.73;;
67195;SDS011;54122;53.538;49.366;2023-05-08T05:12:19;6.40;;;0.70;;
67195;SDS011;54122;53.538;49.366;2023-05-08T05:14:45;1.65;;;0.52;;
67195;SDS011;54122;53.538;49.366;2023-05-08T05:17:11;0.98;;;0.60;;
67195;SDS011;54122;53.538;49.366;2023-05-08T05:19:38;0.95;;;0.60;;
67195;SDS011;54122;53.538;49.366;2023-05-08T05:22:05;3.47;;;0.70;;
67195;SDS011;54122;53.538;49.366;2023-05-08T05:24:32;2.78;;;0.77;;
67195;SDS011;54122;53.538;49.366;2023-05-08T05:27:01;3.08;;;0.73;;
67195;SDS011;54122;53.538;49.366;2023-05-08T05:29:27;16.60;;;0.95;;
67195;SDS011;54122;53.538;49.366;2023-05-08T05:32:12;4.97;;;0.82;;
67195;SDS011;54122;53.538;49.366;2023-05-08T05:34:38;2.70;;;0.50;;
67195;SDS011;54122;53.538;49.366;2023-05-08T05:37:05;1.77;;;0.50;;
67195;SDS011;54122;53.538;49.366;2023-05-08T05:39:32;2.15;;;0.73;;
67195;SDS011;54122;53.538;49.366;2023-05-08T05:45:02;7.28;;;0.88;;
67195;SDS011;54122;53.538;49.366;2023-05-08T05:47:29;1.27;;;0.73;;
67195;SDS011;54122;53.538;49.366;2023-05-08T05:52:59;4.75;;;0.75;;
67195;SDS011;54122;53.538;49.366;2023-05-08T05:55:26;5.15;;;0.68;;
67195;SDS011;54122;53.538;49.366;2023-05-08T05:57:53;6.38;;;0.70;;
67195;SDS011;54122;53.538;49.366;2023-05-08T06:00:19;1.50;;;0.80;;
67195;SDS011;54122;53.538;49.366;2023-05-08T06:02:46;11.23;;;0.85;;
67195;SDS011;54122;53.538;49.366;2023-05-08T06:05:12;2.88;;;0.65;;
67195;SDS011;54122;53.538;49.366;2023-05-08T06:07:39;1.50;;;0.47;;
67195;SDS011;54122;53.538;49.366;2023-05-08T06:10:06;2.35;;;0.63;;
67195;SDS011;54122;53.538;49.366;2023-05-08T06:12:51;2.30;;;0.50;;
67195;SDS011;54122;53.538;49.366;2023-05-08T06:15:18;0.98;;;0.52;;
67195;SDS011;54122;53.538;49.366;2023-05-08T06:17:44;3.45;;;0.40;;
67195;SDS011;54122;53.538;49.366;2023-05-08T06:20:11;0.50;;;0.40;;
67195;SDS011;54122;53.538;49.366;2023-05-08T06:22:56;0.90;;;0.40;;
67195;SDS011;54122;53.538;49.366;2023-05-08T06:25:23;1.35;;;0.50;;
67195;SDS011;54122;53.538;49.366;2023-05-08T06:27:50;0.98;;;0.30;;
67195;SDS011;54122;53.538;49.366;2023-05-08T06:30:16;1.67;;;0.45;;
67195;SDS011;54122;53.538;49.366;2023-05-08T06:32:42;3.33;;;0.75;;
67195;SDS011;54122;53.538;49.366;2023-05-08T06:37:54;1.20;;;0.35;;
67195;SDS011;54122;53.538;49.366;2023-05-08T06:40:20;3.00;;;0.73;;
67195;SDS011;54122;53.538;49.366;2023-05-08T06:42:48;1.35;;;0.57;;
67195;SDS011;54122;53.538;49.366;2023-05-08T06:45:33;4.40;;;0.55;;
67195;SDS011;54122;53.538;49.366;2023-05-08T06:47:59;1.45;;;0.52;;
67195;SDS011;54122;53.538;49.366;2023-05-08T06:50:25;2.05;;;0.80;;
67195;SDS011;54122;53.538;49.366;2023-05-08T06:52:52;1.13;;;0.50;;
67195;SDS011;54122;53.538;49.366;2023-05-08T06:55:18;2.20;;;1.13;;
67195;SDS011;54122;53.538;49.366;2023-05-08T06:57:45;0.57;;;0.40;;
67195;SDS011;54122;53.538;49.366;2023-05-08T07:00:11;3.90;;;0.50;;
67195;SDS011;54122;53.538;49.366;2023-05-08T07:02:38;2.10;;;0.57;;
67195;SDS011;54122;53.538;49.366;2023-05-08T07:05:42;1.15;;;0.60;;
67195;SDS011;54122;53.538;49.366;2023-05-08T07:08:08;8.73;;;0.80;;
67195;SDS011;54122;53.538;49.366;2023-05-08T07:10:35;1.00;;;0.40;;
67195;SDS011;54122;53.538;49.366;2023-05-08T07:13:20;1.02;;;0.30;;
67195;SDS011;54122;53.538;49.366;2023-05-08T07:15:46;0.73;;;0.60;;
67195;SDS011;54122;53.538;49.366;2023-05-08T07:18:31;4.30;;;0.57;;
67195;SDS011;54122;53.538;49.366;2023-05-08T07:20:58;5.70;;;0.50;;
67195;SDS011;54122;53.538;49.366;2023-05-08T07:23:24;1.55;;;0.50;;
67195;SDS011;54122;53.538;49.366;2023-05-08T07:28:37;7.57;;;0.65;;
67195;SDS011;54122;53.538;49.366;2023-05-08T07:31:04;0.95;;;0.50;;
67195;SDS011;54122;53.538;49.366;2023-05-08T07:33:33;1.33;;;0.40;;
67195;SDS011;54122;53.538;49.366;2023-05-08T07:36:00;5.97;;;0.57;;
67195;SDS011;54122;53.538;49.366;2023-05-08T07:38:44;1.30;;;0.55;;
67195;SDS011;54122;53.538;49.366;2023-05-08T07:41:11;1.98;;;0.40;;
67195;SDS011;54122;53.538;49.366;2023-05-08T07:43:37;2.30;;;0.45;;
67195;SDS011;54122;53.538;49.366;2023-05-08T07:46:04;8.30;;;0.55;;
67195;SDS011;54122;53.538;49.366;2023-05-08T07:48:30;14.15;;;0.73;;
67195;SDS011;54122;53.538;49.366;2023-05-08T07:50:57;8.40;;;0.47;;
67195;SDS011;54122;53.538;49.366;2023-05-08T07:53:23;1.70;;;0.40;;
67195;SDS011;54122;53.538;49.366;2023-05-08T07:55:49;2.85;;;0.45;;
67195;SDS011;54122;53.538;49.366;2023-05-08T07:58:16;4.82;;;0.30;;
67195;SDS011;54122;53.538;49.366;2023-05-08T08:00:42;1.30;;;0.70;;
67195;SDS011;54122;53.538;49.366;2023-05-08T08:03:09;1.00;;;0.68;;
67195;SDS011;54122;53.538;49.366;2023-05-08T08:05:35;3.03;;;0.57;;
67195;SDS011;54122;53.538;49.366;2023-05-08T08:08:02;1.38;;;0.40;;
67195;SDS011;54122;53.538;49.366;2023-05-08T08:10:29;8.30;;;0.60;;
67195;SDS011;54122;53.538;49.366;2023-05-08T08:13:14;1.20;;;0.40;;
67195;SDS011;54122;53.538;49.366;2023-05-08T08:15:40;2.10;;;0.40;;
67195;SDS011;54122;53.538;49.366;2023-05-08T08:26:23;2.20;;;0.50;;
67195;SDS011;54122;53.538;49.366;2023-05-08T08:28:50;9.60;;;0.40;;
67195;SDS011;54122;53.538;49.366;2023-05-08T08:31:16;0.40;;;0.30;;
67195;SDS011;54122;53.538;49.366;2023-05-08T08:34:01;1.08;;;0.50;;
67195;SDS011;54122;53.538;49.366;2023-05-08T08:36:45;2.38;;;0.60;;
67195;SDS011;54122;53.538;49.366;2023-05-08T08:39:12;2.38;;;0.65;;
67195;SDS011;54122;53.538;49.366;2023-05-08T08:41:38;0.82;;;0.40;;
67195;SDS011;54122;53.538;49.366;2023-05-08T08:44:05;0.93;;;0.50;;
67195;SDS011;54122;53.538;49.366;2023-05-08T08:47:09;3.60;;;0.80;;
67195;SDS011;54122;53.538;49.366;2023-05-08T08:49:42;8.00;;;1.00;;
67195;SDS011;54122;53.538;49.366;2023-05-08T08:52:18;0.85;;;0.45;;
67195;SDS011;54122;53.538;49.366;2023-05-08T08:55:02;2.38;;;0.73;;
67195;SDS011;54122;53.538;49.366;2023-05-08T08:57:34;2.33;;;0.57;;
67195;SDS011;54122;53.538;49.366;2023-05-08T09:00:03;2.90;;;0.85;;
67195;SDS011;54122;53.538;49.366;2023-05-08T09:02:34;1.08;;;0.40;;
67195;SDS011;54122;53.538;49.366;2023-05-08T09:05:02;4.15;;;1.15;;
67195;SDS011;54122;53.538;49.366;2023-05-08T09:07:29;1.73;;;0.40;;
67195;SDS011;54122;53.538;49.366;2023-05-08T09:09:55;0.43;;;0.40;;
67195;SDS011;54122;53.538;49.366;2023-05-08T09:12:40;2.67;;;0.50;;
67195;SDS011;54122;53.538;49.366;2023-05-08T09:15:07;2.83;;;0.40;;
67195;SDS011;54122;53.538;49.366;2023-05-08T09:17:34;0.93;;;0.50;;
67195;SDS011;54122;53.538;49.366;2023-05-08T09:20:01;2.70;;;0.43;;
67195;SDS011;54122;53.538;49.366;2023-05-08T09:22:28;1.58;;;0.40;;
67195;SDS011;54122;53.538;49.366;2023-05-08T09:27:40;0.50;;;0.32;;
67195;SDS011;54122;53.538;49.366;2023-05-08T09:30:11;6.85;;;0.52;;
67195;SDS011;54122;53.538;49.366;2023-05-08T09:32:40;2.05;;;0.50;;
67195;SDS011;54122;53.538;49.366;2023-05-08T09:35:08;1.05;;;0.50;;
67195;SDS011;54122;53.538;49.366;2023-05-08T09:37:40;1.50;;;0.40;;
67195;SDS011;54122;53.538;49.366;2023-05-08T09:40:14;2.10;;;0.55;;
67195;SDS011;54122;53.538;49.366;2023-05-08T09:43:18;1.52;;;0.60;;
67195;SDS011;54122;53.538;49.366;2023-05-08T09:45:45;2.58;;;0.77;;
67195;SDS011;54122;53.538;49.366;2023-05-08T09:51:33;0.70;;;0.45;;
67195;SDS011;54122;53.538;49.366;2023-05-08T09:54:00;4.20;;;0.60;;
67195;SDS011;54122;53.538;49.366;2023-05-08T09:59:26;5.25;;;0.60;;
67195;SDS011;54122;53.538;49.366;2023-05-08T10:01:54;7.40;;;0.60;;
67195;SDS011;54122;53.538;49.366;2023-05-08T10:04:31;0.63;;;0.30;;
67195;SDS011;54122;53.538;49.366;2023-05-08T10:07:02;0.47;;;0.30;;
67195;SDS011;54122;53.538;49.366;2023-05-08T10:09:29;0.75;;;0.40;;
67195;SDS011;54122;53.538;49.366;2023-05-08T10:11:55;9.57;;;0.63;;
67195;SDS011;54122;53.538;49.366;2023-05-08T10:14:22;4.88;;;0.60;;
67195;SDS011;54122;53.538;49.366;2023-05-08T10:16:50;5.72;;;0.60;;
67195;SDS011;54122;53.538;49.366;2023-05-08T10:22:05;2.22;;;1.13;;
67195;SDS011;54122;53.538;49.366;2023-05-08T10:27:27;1.75;;;0.60;;
67195;SDS011;54122;53.538;49.366;2023-05-08T10:30:02;5.60;;;1.25;;
67195;SDS011;54122;53.538;49.366;2023-05-08T10:32:31;1.45;;;0.40;;
67195;SDS011;54122;53.538;49.366;2023-05-08T10:35:08;0.68;;;0.40;;
67195;SDS011;54122;53.538;49.366;2023-05-08T10:37:35;2.15;;;0.50;;
67195;SDS011;54122;53.538;49.366;2023-05-08T10:40:03;4.72;;;0.40;;
67195;SDS011;54122;53.538;49.366;2023-05-08T10:42:33;1.73;;;0.40;;
67195;SDS011;54122;53.538;49.366;2023-05-08T10:45:19;6.95;;;0.65;;
67195;SDS011;54122;53.538;49.366;2023-05-08T10:50:53;1.60;;;0.43;;
67195;SDS011;54122;53.538;49.366;2023-05-08T10:55:49;1.35;;;0.73;;
67195;SDS011;54122;53.538;49.366;2023-05-08T10:58:35;2.97;;;1.23;;
67195;SDS011;54122;53.538;49.366;2023-05-08T11:01:20;1.17;;;0.52;;
67195;SDS011;54122;53.538;49.366;2023-05-08T11:03:47;1.33;;;0.68;;
67195;SDS011;54122;53.538;49.366;2023-05-08T11:12:22;0.40;;;0.40;;
67195;SDS011;54122;53.538;49.366;2023-05-08T11:14:58;0.90;;;0.40;;
67195;SDS011;54122;53.538;49.366;2023-05-08T11:17:31;2.97;;;0.40;;
67195;SDS011;54122;53.538;49.366;2023-05-08T11:19:58;0.40;;;0.30;;
67195;SDS011;54122;53.538;49.366;2023-05-08T11:29:14;1.70;;;0.60;;
67195;SDS011;54122;53.538;49.366;2023-05-08T11:31:48;1.55;;;0.55;;
67195;SDS011;54122;53.538;49.366;2023-05-08T11:37:25;1.33;;;0.43;;
67195;SDS011;54122;53.538;49.366;2023-05-08T11:39:53;1.48;;;0.65;;
67195;SDS011;54122;53.538;49.366;2023-05-08T11:42:58;2.72;;;0.77;;
67195;SDS011;54122;53.538;49.366;2023-05-08T11:45:24;1.30;;;0.40;;
67195;SDS011;54122;53.538;49.366;2023-05-08T11:47:52;6.70;;;0.40;;
67195;SDS011;54122;53.538;49.366;2023-05-08T11:50:26;5.38;;;0.75;;
67195;SDS011;54122;53.538;49.366;2023-05-08T11:52:52;1.05;;;0.60;;
67195;SDS011;54122;53.538;49.366;2023-05-08T11:55:37;0.70;;;0.40;;
67195;SDS011;54122;53.538;49.366;2023-05-08T11:58:11;1.10;;;0.50;;
67195;SDS011;54122;53.538;49.366;2023-05-08T12:00:41;2.38;;;0.40;;
67195;SDS011;54122;53.538;49.366;2023-05-08T12:03:13;1.45;;;0.70;;
67195;SDS011;54122;53.538;49.366;2023-05-08T12:06:02;1.17;;;0.63;;
67195;SDS011;54122;53.538;49.366;2023-05-08T12:08:28;2.38;;;0.65;;
67195;SDS011;54122;53.538;49.366;2023-05-08T12:10:56;3.03;;;0.40;;
67195;SDS011;54122;53.538;49.366;2023-05-08T12:13:26;0.75;;;0.30;;
67195;SDS011;54122;53.538;49.366;2023-05-08T12:15:56;4.18;;;0.55;;
67195;SDS011;54122;53.538;49.366;2023-05-08T12:18:24;3.45;;;0.38;;
67195;SDS011;54122;53.538;49.366;2023-05-08T12:23:36;0.93;;;0.50;;
67195;SDS011;54122;53.538;49.366;2023-05-08T12:26:03;4.10;;;0.60;;
67195;SDS011;54122;53.538;49.366;2023-05-08T12:28:53;3.20;;;0.80;;
67195;SDS011;54122;53.538;49.366;2023-05-08T12:31:21;2.28;;;0.47;;
67195;SDS011;54122;53.538;49.366;2023-05-08T12:33:48;1.70;;;0.60;;
67195;SDS011;54122;53.538;49.366;2023-05-08T12:39:27;4.20;;;0.57;;
67195;SDS011;54122;53.538;49.366;2023-05-08T12:41:58;1.15;;;0.60;;
67195;SDS011;54122;53.538;49.366;2023-05-08T12:44:25;1.45;;;0.43;;
67195;SDS011;54122;53.538;49.366;2023-05-08T12:46:53;1.35;;;0.45;;
67195;SDS011;54122;53.538;49.366;2023-05-08T12:49:38;0.80;;;0.40;;
67195;SDS011;54122;53.538;49.366;2023-05-08T12:52:08;1.05;;;0.40;;
67195;SDS011;54122;53.538;49.366;2023-05-08T12:54:38;24.33;;;0.82;;
67195;SDS011;54122;53.538;49.366;2023-05-08T12:57:09;1.85;;;0.57;;
67195;SDS011;54122;53.538;49.366;2023-05-08T12:59:40;0.20;;;0.10;;
67195;SDS011;54122;53.538;49.366;2023-05-08T13:02:17;1.77;;;0.70;;
67195;SDS011;54122;53.538;49.366;2023-05-08T13:04:52;0.90;;;0.50;;
67195;SDS011;54122;53.538;49.366;2023-05-08T13:13:29;1.13;;;0.50;;
67195;SDS011;54122;53.538;49.366;2023-05-08T13:15:56;2.85;;;0.40;;
67195;SDS011;54122;53.538;49.366;2023-05-08T13:18:24;0.52;;;0.38;;
67195;SDS011;54122;53.538;49.366;2023-05-08T13:20:52;2.08;;;0.50;;
67195;SDS011;54122;53.538;49.366;2023-05-08T13:23:19;4.07;;;0.55;;
67195;SDS011;54122;53.538;49.366;2023-05-08T13:25:45;0.98;;;0.57;;
67195;SDS011;54122;53.538;49.366;2023-05-08T13:30:57;0.88;;;0.40;;
67195;SDS011;54122;53.538;49.366;2023-05-08T13:33:23;1.80;;;0.55;;
67195;SDS011;54122;53.538;49.366;2023-05-08T13:35:49;3.20;;;0.55;;
67195;SDS011;54122;53.538;49.366;2023-05-08T13:38:15;2.00;;;0.55;;
67195;SDS011;54122;53.538;49.366;2023-05-08T13:40:42;2.63;;;0.70;;
67195;SDS011;54122;53.538;49.366;2023-05-08T13:43:08;2.70;;;0.88;;
67195;SDS011;54122;53.538;49.366;2023-05-08T13:45:35;1.13;;;0.50;;
67195;SDS011;54122;53.538;49.366;2023-05-08T13:48:02;6.32;;;0.50;;
67195;SDS011;54122;53.538;49.366;2023-05-08T13:50:28;1.85;;;0.75;;
67195;SDS011;54122;53.538;49.366;2023-05-08T13:52:54;2.55;;;0.70;;
67195;SDS011;54122;53.538;49.366;2023-05-08T13:58:08;0.45;;;0.40;;
67195;SDS011;54122;53.538;49.366;2023-05-08T14:00:35;0.40;;;0.38;;
67195;SDS011;54122;53.538;49.366;2023-05-08T14:03:01;3.17;;;0.65;;
67195;SDS011;54122;53.538;49.366;2023-05-08T14:05:27;1.65;;;0.55;;
67195;SDS011;54122;53.538;49.366;2023-05-08T14:07:54;3.95;;;0.60;;
67195;SDS011;54122;53.538;49.366;2023-05-08T14:10:20;1.38;;;0.60;;
67195;SDS011;54122;53.538;49.366;2023-05-08T14:12:47;1.27;;;0.55;;
67195;SDS011;54122;53.538;49.366;2023-05-08T14:15:13;0.95;;;0.63;;
67195;SDS011;54122;53.538;49.366;2023-05-08T14:20:25;2.67;;;0.98;;
67195;SDS011;54122;53.538;49.366;2023-05-08T14:25:56;3.17;;;0.70;;
67195;SDS011;54122;53.538;49.366;2023-05-08T14:28:22;5.90;;;0.52;;
67195;SDS011;54122;53.538;49.366;2023-05-08T14:30:48;2.50;;;0.50;;
67195;SDS011;54122;53.538;49.366;2023-05-08T14:33:33;7.07;;;0.68;;
67195;SDS011;54122;53.538;49.366;2023-05-08T14:35:59;1.80;;;0.82;;
67195;SDS011;54122;53.538;49.366;2023-05-08T14:38:44;2.45;;;0.73;;
67195;SDS011;54122;53.538;49.366;2023-05-08T14:41:11;12.98;;;0.75;;
67195;SDS011;54122;53.538;49.366;2023-05-08T14:46:22;3.40;;;0.60;;
67195;SDS011;54122;53.538;49.366;2023-05-08T14:48:50;0.65;;;0.50;;
67195;SDS011;54122;53.538;49.366;2023-05-08T14:54:01;2.45;;;0.95;;
67195;SDS011;54122;53.538;49.366;2023-05-08T14:56:46;2.78;;;1.25;;
67195;SDS011;54122;53.538;49.366;2023-05-08T14:59:12;2.22;;;0.93;;
67195;SDS011;54122;53.538;49.366;2023-05-08T15:01:38;3.72;;;1.20;;
67195;SDS011;54122;53.538;49.366;2023-05-08T15:04:23;5.88;;;0.93;;
67195;SDS011;54122;53.538;49.366;2023-05-08T15:07:07;6.13;;;0.85;;
67195;SDS011;54122;53.538;49.366;2023-05-08T15:09:34;4.57;;;1.42;;
67195;SDS011;54122;53.538;49.366;2023-05-08T15:12:00;8.70;;;0.80;;
67195;SDS011;54122;53.538;49.366;2023-05-08T15:14:44;13.00;;;4.03;;
67195;SDS011;54122;53.538;49.366;2023-05-08T15:17:11;7.88;;;2.22;;
67195;SDS011;54122;53.538;49.366;2023-05-08T15:19:37;3.22;;;1.40;;
67195;SDS011;54122;53.538;49.366;2023-05-08T15:22:03;3.75;;;0.90;;
67195;SDS011;54122;53.538;49.366;2023-05-08T15:24:30;3.58;;;0.80;;
67195;SDS011;54122;53.538;49.366;2023-05-08T15:26:56;4.38;;;1.85;;
67195;SDS011;54122;53.538;49.366;2023-05-08T15:29:22;5.32;;;2.08;;
67195;SDS011;54122;53.538;49.366;2023-05-08T15:34:35;16.73;;;2.40;;
67195;SDS011;54122;53.538;49.366;2023-05-08T15:39:46;11.18;;;3.05;;
67195;SDS011;54122;53.538;49.366;2023-05-08T15:42:31;9.50;;;2.60;;
67195;SDS011;54122;53.538;49.366;2023-05-08T15:44:57;11.10;;;2.72;;
67195;SDS011;54122;53.538;49.366;2023-05-08T15:47:24;9.48;;;2.63;;
67195;SDS011;54122;53.538;49.366;2023-05-08T15:52:39;9.43;;;3.05;;
67195;SDS011;54122;53.538;49.366;2023-05-08T15:55:05;5.85;;;2.85;;
67195;SDS011;54122;53.538;49.366;2023-05-08T15:57:31;11.20;;;3.50;;
67195;SDS011;54122;53.538;49.366;2023-05-08T15:59:58;10.63;;;3.15;;
67195;SDS011;54122;53.538;49.366;2023-05-08T16:02:24;13.75;;;4.00;;
67195;SDS011;54122;53.538;49.366;2023-05-08T16:07:35;8.60;;;3.22;;
67195;SDS011;54122;53.538;49.366;2023-05-08T16:10:02;7.45;;;2.60;;
67195;SDS011;54122;53.538;49.366;2023-05-08T16:12:29;9.27;;;2.85;;
67195;SDS011;54122;53.538;49.366;2023-05-08T16:14:55;5.82;;;1.48;;
67195;SDS011;54122;53.538;49.366;2023-05-08T16:17:21;5.82;;;1.35;;
67195;SDS011;54122;53.538;49.366;2023-05-08T16:19:47;3.53;;;1.60;;
67195;SDS011;54122;53.538;49.366;2023-05-08T16:22:14;7.13;;;1.65;;
67195;SDS011;54122;53.538;49.366;2023-05-08T16:24:40;6.07;;;1.75;;
67195;SDS011;54122;53.538;49.366;2023-05-08T16:27:06;8.48;;;1.85;;
67195;SDS011;54122;53.538;49.366;2023-05-08T16:29:32;3.95;;;1.33;;
67195;SDS011;54122;53.538;49.366;2023-05-08T16:31:58;4.57;;;0.85;;
67195;SDS011;54122;53.538;49.366;2023-05-08T16:34:25;1.83;;;0.68;;
67195;SDS011;54122;53.538;49.366;2023-05-08T16:39:36;6.93;;;1.77;;
67195;SDS011;54122;53.538;49.366;2023-05-08T16:42:21;15.65;;;2.97;;
67195;SDS011;54122;53.538;49.366;2023-05-08T16:44:47;10.20;;;2.88;;
67195;SDS011;54122;53.538;49.366;2023-05-08T16:47:13;14.18;;;4.13;;
67195;SDS011;54122;53.538;49.366;2023-05-08T16:49:40;9.35;;;2.80;;
67195;SDS011;54122;53.538;49.366;2023-05-08T16:52:25;6.70;;;2.45;;
67195;SDS011;54122;53.538;49.366;2023-05-08T16:54:51;7.93;;;2.65;;
67195;SDS011;54122;53.538;49.366;2023-05-08T16:57:17;6.45;;;3.25;;
67195;SDS011;54122;53.538;49.366;2023-05-08T16:59:45;8.32;;;3.35;;
67195;SDS011;54122;53.538;49.366;2023-05-08T17:02:11;8.93;;;3.20;;
67195;SDS011;54122;53.538;49.366;2023-05-08T17:04:45;27.55;;;3.65;;
67195;SDS011;54122;53.538;49.366;2023-05-08T17:07:15;8.15;;;2.72;;
67195;SDS011;54122;53.538;49.366;2023-05-08T17:09:42;6.80;;;2.58;;